Time;durP1;ratioP1;P1;durP2;ratioP2;P2;SDS_P1;SDS_P2;PMS_P1;PMS_P2;Temp;Humidity;BMP_temperature;BMP_pressure;BME280_temperature;BME280_humidity;BME280_pressure;Samples;Min_cycle;Max_cycle;Signal;HPM_P1;HPM_P2
2022/06/08 00:00:10;;;;;;;16.77;10.88;;;;;;;;;;4993810;28;20185;-70
2022/06/08 00:02:37;;;;;;;19.75;11.50;;;;;;;;;;4970011;28;20201;-71
2022/06/08 00:05:03;;;;;;;18.23;12.00;;;;;;;;;;4985284;28;20195;-67
2022/06/08 00:07:30;;;;;;;17.20;12.00;;;;;;;;;;4976482;28;20236;-70
2022/06/08 00:09:56;;;;;;;17.98;12.02;;;;;;;;;;4976244;28;20208;-72
2022/06/08 00:12:22;;;;;;;19.00;11.80;;;;;;;;;;4976475;28;20189;-70
2022/06/08 00:14:48;;;;;;;20.27;12.20;;;;;;;;;;4956863;28;20190;-69
2022/06/08 00:17:14;;;;;;;16.67;11.35;;;;;;;;;;4974091;28;20741;-70
2022/06/08 00:19:40;;;;;;;25.38;11.20;;;;;;;;;;4974374;28;20185;-69
2022/06/08 00:22:06;;;;;;;19.83;11.70;;;;;;;;;;4969022;28;20657;-68
2022/06/08 00:24:33;;;;;;;19.15;11.43;;;;;;;;;;4960380;28;20725;-69
2022/06/08 00:27:00;;;;;;;18.05;11.82;;;;;;;;;;4973911;28;20210;-69
2022/06/08 00:29:26;;;;;;;17.08;11.48;;;;;;;;;;4940634;28;20244;-68
2022/06/08 00:31:55;;;;;;;18.10;11.25;;;;;;;;;;4969142;28;20178;-67
2022/06/08 00:34:21;;;;;;;16.45;10.57;;;;;;;;;;4967603;28;20182;-71
2022/06/08 00:36:47;;;;;;;16.42;9.82;;;;;;;;;;4943346;28;20508;-69
2022/06/08 00:39:13;;;;;;;16.30;10.50;;;;;;;;;;4993165;28;20185;-67
2022/06/08 00:41:48;;;;;;;17.58;9.40;;;;;;;;;;4959729;28;20688;-69
2022/06/08 00:44:19;;;;;;;19.98;9.07;;;;;;;;;;4973988;28;20189;-68
2022/06/08 00:46:46;;;;;;;13.75;8.95;;;;;;;;;;4973506;28;20202;-69
2022/06/08 00:49:20;;;;;;;12.63;8.00;;;;;;;;;;4981398;28;20260;-69
2022/06/08 00:51:46;;;;;;;13.82;7.75;;;;;;;;;;4975640;28;20716;-68
2022/06/08 00:54:17;;;;;;;14.75;7.45;;;;;;;;;;4943699;28;20182;-70
2022/06/08 00:56:47;;;;;;;11.75;7.18;;;;;;;;;;4976186;28;20556;-70
2022/06/08 00:59:13;;;;;;;14.45;7.00;;;;;;;;;;4955980;28;20224;-70
2022/06/08 01:01:39;;;;;;;9.68;6.35;;;;;;;;;;4968744;28;20607;-69
2022/06/08 01:04:08;;;;;;;11.60;5.32;;;;;;;;;;4975468;28;20189;-71
2022/06/08 01:06:34;;;;;;;11.90;5.38;;;;;;;;;;4959280;28;20217;-70
2022/06/08 01:09:00;;;;;;;11.20;5.00;;;;;;;;;;4975345;28;20564;-70
2022/06/08 01:11:27;;;;;;;10.85;4.75;;;;;;;;;;4975341;28;20185;-70
2022/06/08 01:13:59;;;;;;;10.63;4.65;;;;;;;;;;4975173;28;20232;-70
2022/06/08 01:16:25;;;;;;;11.00;4.18;;;;;;;;;;4954144;28;20299;-70
2022/06/08 01:18:52;;;;;;;10.57;4.43;;;;;;;;;;4965397;28;20540;-68
2022/06/08 01:21:22;;;;;;;11.73;4.53;;;;;;;;;;4959259;28;20262;-69
2022/06/08 01:24:01;;;;;;;9.82;4.10;;;;;;;;;;4949630;28;20276;-72
2022/06/08 01:26:29;;;;;;;9.88;4.38;;;;;;;;;;4971416;28;20561;-70
2022/06/08 01:29:11;;;;;;;8.55;4.22;;;;;;;;;;4970710;28;20646;-70
2022/06/08 01:31:46;;;;;;;12.00;4.68;;;;;;;;;;4974909;28;20204;-70
2022/06/08 01:34:12;;;;;;;11.77;4.50;;;;;;;;;;4990785;28;20196;-72
2022/06/08 01:36:38;;;;;;;11.82;4.22;;;;;;;;;;4973566;28;20581;-70
2022/06/08 01:39:12;;;;;;;11.45;5.65;;;;;;;;;;4957833;28;20681;-71
2022/06/08 01:41:42;;;;;;;13.88;6.70;;;;;;;;;;4955958;28;20631;-69
2022/06/08 01:44:08;;;;;;;16.08;8.10;;;;;;;;;;4946548;28;20185;-69
2022/06/08 01:46:39;;;;;;;15.75;8.65;;;;;;;;;;4958137;28;20201;-70
2022/06/08 01:49:16;;;;;;;15.27;8.45;;;;;;;;;;4978196;28;20273;-70
2022/06/08 01:51:47;;;;;;;14.73;9.43;;;;;;;;;;4972639;28;20186;-70
2022/06/08 01:54:20;;;;;;;18.63;10.75;;;;;;;;;;4970842;28;20181;-70
2022/06/08 01:56:49;;;;;;;20.10;10.82;;;;;;;;;;4992047;28;20181;-72
2022/06/08 01:59:35;;;;;;;20.90;11.45;;;;;;;;;;4946976;28;20193;-69
2022/06/08 02:02:01;;;;;;;20.08;11.77;;;;;;;;;;4956943;28;20558;-71
2022/06/08 02:04:27;;;;;;;20.90;11.90;;;;;;;;;;4974065;28;20185;-69
2022/06/08 02:07:12;;;;;;;26.25;12.50;;;;;;;;;;4958353;28;20208;-69
2022/06/08 02:09:52;;;;;;;25.17;13.63;;;;;;;;;;4947926;28;20190;-70
2022/06/08 02:12:20;;;;;;;27.27;15.55;;;;;;;;;;4970115;28;20201;-70
2022/06/08 02:14:54;;;;;;;28.40;14.57;;;;;;;;;;4974170;28;20292;-67
2022/06/08 02:17:30;;;;;;;25.02;15.68;;;;;;;;;;4973799;28;20211;-71
2022/06/08 02:20:08;;;;;;;29.63;15.95;;;;;;;;;;4943065;28;20216;-68
2022/06/08 02:22:39;;;;;;;28.60;16.85;;;;;;;;;;4959346;28;20662;-70
2022/06/08 02:25:18;;;;;;;26.73;15.63;;;;;;;;;;4939005;28;20200;-70
2022/06/08 02:27:58;;;;;;;29.75;16.13;;;;;;;;;;4957235;28;20300;-69
2022/06/08 02:30:26;;;;;;;31.58;15.93;;;;;;;;;;4991241;28;20603;-70
2022/06/08 02:35:43;;;;;;;29.70;17.02;;;;;;;;;;4962348;28;20228;-67
2022/06/08 02:38:12;;;;;;;27.60;17.00;;;;;;;;;;4968991;28;20229;-72
2022/06/08 02:40:41;;;;;;;29.73;18.02;;;;;;;;;;4972264;28;20192;-72
2022/06/08 02:43:16;;;;;;;33.45;18.60;;;;;;;;;;4965036;28;20531;-69
2022/06/08 02:45:43;;;;;;;33.33;18.98;;;;;;;;;;4954239;28;20177;-68
2022/06/08 02:48:13;;;;;;;36.85;20.00;;;;;;;;;;4954094;28;20202;-70
2022/06/08 02:50:50;;;;;;;35.13;20.10;;;;;;;;;;4954211;28;20245;-69
2022/06/08 02:53:16;;;;;;;33.15;21.02;;;;;;;;;;4952699;28;20212;-67
2022/06/08 02:55:50;;;;;;;37.20;21.52;;;;;;;;;;4954032;28;20709;-70
2022/06/08 02:58:20;;;;;;;37.30;21.75;;;;;;;;;;4971290;28;20608;-68
2022/06/08 03:00:51;;;;;;;39.80;23.05;;;;;;;;;;4959380;28;20185;-69
2022/06/08 03:03:35;;;;;;;39.15;24.25;;;;;;;;;;4953206;28;20178;-69
2022/06/08 03:06:06;;;;;;;38.58;23.35;;;;;;;;;;4955220;28;20198;-69
2022/06/08 03:08:39;;;;;;;41.20;24.13;;;;;;;;;;4973128;28;20579;-69
2022/06/08 03:11:07;;;;;;;45.40;24.45;;;;;;;;;;4973123;28;20192;-69
2022/06/08 03:13:45;;;;;;;42.20;25.88;;;;;;;;;;4990633;28;20238;-70
2022/06/08 03:16:24;;;;;;;51.60;27.15;;;;;;;;;;4966737;28;20213;-68
2022/06/08 03:18:52;;;;;;;43.00;25.63;;;;;;;;;;4954501;28;20244;-68
2022/06/08 03:21:19;;;;;;;44.38;25.83;;;;;;;;;;4951437;28;20189;-70
2022/06/08 03:23:46;;;;;;;46.13;26.80;;;;;;;;;;4955388;28;20190;-71
2022/06/08 03:26:13;;;;;;;43.92;25.67;;;;;;;;;;4951891;28;20196;-69
2022/06/08 03:28:42;;;;;;;44.08;25.17;;;;;;;;;;4940927;28;20612;-69
2022/06/08 03:31:08;;;;;;;45.22;26.42;;;;;;;;;;4972976;28;20292;-68
2022/06/08 03:33:34;;;;;;;41.45;25.60;;;;;;;;;;4964385;28;20186;-68
2022/06/08 03:36:01;;;;;;;47.30;25.58;;;;;;;;;;4920311;28;20197;-69
2022/06/08 03:38:28;;;;;;;38.70;25.08;;;;;;;;;;4960415;28;20193;-68
2022/06/08 03:40:55;;;;;;;42.55;25.90;;;;;;;;;;4966441;28;20182;-67
2022/06/08 03:43:21;;;;;;;42.92;24.77;;;;;;;;;;4962819;28;20285;-71
2022/06/08 03:45:52;;;;;;;43.15;23.58;;;;;;;;;;4944563;28;20255;-71
2022/06/08 03:48:18;;;;;;;37.72;24.05;;;;;;;;;;4935304;28;20214;-70
2022/06/08 03:50:46;;;;;;;38.80;24.55;;;;;;;;;;4951276;28;20184;-67
2022/06/08 03:53:15;;;;;;;36.42;23.00;;;;;;;;;;4977667;28;20540;-70
2022/06/08 03:55:41;;;;;;;36.55;23.73;;;;;;;;;;4972501;28;20185;-71
2022/06/08 03:58:08;;;;;;;40.13;22.70;;;;;;;;;;4969440;28;20209;-69
2022/06/08 04:00:38;;;;;;;37.35;22.58;;;;;;;;;;4951375;28;20249;-72
2022/06/08 04:03:09;;;;;;;38.40;23.08;;;;;;;;;;4953180;28;20634;-69
2022/06/08 04:05:36;;;;;;;39.00;22.58;;;;;;;;;;4957761;28;20268;-71
2022/06/08 04:08:07;;;;;;;39.05;22.17;;;;;;;;;;4972484;28;20251;-69
2022/06/08 04:10:40;;;;;;;31.88;20.60;;;;;;;;;;4940260;28;20284;-70
2022/06/08 04:13:06;;;;;;;35.35;20.90;;;;;;;;;;4945547;28;20634;-71
2022/06/08 04:15:42;;;;;;;34.13;20.58;;;;;;;;;;4972455;28;20267;-71
2022/06/08 04:18:14;;;;;;;34.38;20.05;;;;;;;;;;4956656;28;20253;-71
2022/06/08 04:20:41;;;;;;;28.48;18.88;;;;;;;;;;4968872;28;20189;-69
2022/06/08 04:23:08;;;;;;;28.95;18.23;;;;;;;;;;4965614;28;20189;-71
2022/06/08 04:25:35;;;;;;;31.08;18.80;;;;;;;;;;4960803;28;20186;-71
2022/06/08 04:28:02;;;;;;;29.92;17.17;;;;;;;;;;4966244;28;20685;-71
2022/06/08 04:30:28;;;;;;;29.30;16.80;;;;;;;;;;4954290;28;20654;-70
2022/06/08 04:32:54;;;;;;;28.95;15.90;;;;;;;;;;4952106;28;20238;-70
2022/06/08 04:35:21;;;;;;;24.65;15.27;;;;;;;;;;4944122;28;20693;-72
2022/06/08 04:37:47;;;;;;;26.65;14.88;;;;;;;;;;4955746;28;20253;-71
2022/06/08 04:40:15;;;;;;;24.67;14.68;;;;;;;;;;4958213;28;20193;-69
2022/06/08 04:42:46;;;;;;;21.25;13.48;;;;;;;;;;4957378;28;20564;-70
2022/06/08 04:45:12;;;;;;;20.88;13.63;;;;;;;;;;4973492;28;20182;-70
2022/06/08 04:47:39;;;;;;;19.42;12.02;;;;;;;;;;4956940;28;20224;-68
2022/06/08 04:50:07;;;;;;;20.77;12.02;;;;;;;;;;4956198;28;20778;-68
2022/06/08 04:52:34;;;;;;;17.27;11.98;;;;;;;;;;4972296;28;20190;-68
2022/06/08 04:55:01;;;;;;;16.33;10.82;;;;;;;;;;4956367;28;20729;-69
2022/06/08 04:57:30;;;;;;;21.35;10.57;;;;;;;;;;4973440;28;20178;-67
2022/06/08 04:59:57;;;;;;;18.52;9.98;;;;;;;;;;4955633;28;20190;-68
2022/06/08 05:05:17;;;;;;;13.93;9.82;;;;;;;;;;4956113;28;20201;-66
2022/06/08 05:07:44;;;;;;;15.02;9.05;;;;;;;;;;4957454;28;20288;-68
2022/06/08 05:10:11;;;;;;;14.23;9.23;;;;;;;;;;4975116;28;20239;-68
2022/06/08 05:12:40;;;;;;;14.68;8.35;;;;;;;;;;4964244;28;20574;-69
2022/06/08 05:15:08;;;;;;;15.80;8.40;;;;;;;;;;4960878;28;20264;-68
2022/06/08 05:17:35;;;;;;;16.95;8.02;;;;;;;;;;4940242;28;20261;-69
2022/06/08 05:20:02;;;;;;;12.13;7.47;;;;;;;;;;4955892;28;20186;-69
2022/06/08 05:22:31;;;;;;;17.38;7.97;;;;;;;;;;4939646;28;20189;-70
2022/06/08 05:24:58;;;;;;;9.68;6.82;;;;;;;;;;4954112;28;20202;-68
2022/06/08 05:27:25;;;;;;;11.98;7.10;;;;;;;;;;4965259;28;20213;-67
2022/06/08 05:29:51;;;;;;;13.38;6.95;;;;;;;;;;4990648;28;20189;-68
2022/06/08 05:32:20;;;;;;;8.45;5.80;;;;;;;;;;4955104;28;20186;-67
2022/06/08 05:34:46;;;;;;;13.70;6.03;;;;;;;;;;4972712;28;20185;-68
2022/06/08 05:37:14;;;;;;;11.82;6.07;;;;;;;;;;4971781;28;20195;-67
2022/06/08 05:39:41;;;;;;;10.32;6.30;;;;;;;;;;4953631;28;20238;-67
2022/06/08 05:42:09;;;;;;;12.60;6.50;;;;;;;;;;4964279;28;20273;-68
2022/06/08 05:44:38;;;;;;;8.57;6.10;;;;;;;;;;4974400;28;20232;-68
2022/06/08 05:47:05;;;;;;;11.90;5.93;;;;;;;;;;4939116;28;20201;-67
2022/06/08 05:49:35;;;;;;;10.27;5.50;;;;;;;;;;4962744;28;20236;-70
2022/06/08 05:52:06;;;;;;;8.80;5.70;;;;;;;;;;4973337;28;20189;-70
2022/06/08 05:54:33;;;;;;;11.88;5.57;;;;;;;;;;4973963;28;20185;-70
2022/06/08 05:59:43;;;;;;;10.95;5.95;;;;;;;;;;5127697;27;20406;-69
2022/06/08 06:02:13;;;;;;;10.10;5.85;;;;;;;;;;5107184;27;20578;-68
2022/06/08 06:04:39;;;;;;;11.23;5.63;;;;;;;;;;5108570;28;20234;-67
2022/06/08 06:07:06;;;;;;;10.75;5.85;;;;;;;;;;5108505;27;20230;-69
2022/06/08 06:09:33;;;;;;;10.95;6.00;;;;;;;;;;5091318;27;20193;-69
2022/06/08 06:12:00;;;;;;;9.23;5.53;;;;;;;;;;5092649;27;20249;-67
2022/06/08 06:14:32;;;;;;;10.65;5.95;;;;;;;;;;5129836;27;20199;-69
2022/06/08 06:17:00;;;;;;;11.77;6.55;;;;;;;;;;5129734;27;20633;-69
2022/06/08 06:19:26;;;;;;;15.10;6.07;;;;;;;;;;5129246;27;20206;-70
2022/06/08 06:22:10;;;;;;;12.55;7.90;;;;;;;;;;5133149;27;20233;-69
2022/06/08 06:25:03;;;;;;;10.27;6.15;;;;;;;;;;5131449;27;20173;-70
2022/06/08 06:27:58;;;;;;;9.45;5.93;;;;;;;;;;5129489;27;20206;-70
2022/06/08 06:30:24;;;;;;;10.93;6.10;;;;;;;;;;5132573;27;20636;-67
2022/06/08 06:33:11;;;;;;;10.02;5.72;;;;;;;;;;5127234;27;20564;-66
2022/06/08 06:35:38;;;;;;;14.55;6.18;;;;;;;;;;5103497;27;20554;-68
2022/06/08 06:38:06;;;;;;;10.30;5.75;;;;;;;;;;5105894;27;20703;-68
2022/06/08 06:40:36;;;;;;;13.63;6.85;;;;;;;;;;5108425;27;20197;-68
2022/06/08 06:43:04;;;;;;;12.43;7.10;;;;;;;;;;5108602;27;20666;-67
2022/06/08 06:45:39;;;;;;;16.55;7.38;;;;;;;;;;5108417;27;20640;-71
2022/06/08 06:48:38;;;;;;;13.70;7.10;;;;;;;;;;5081261;27;20189;-68
2022/06/08 06:51:06;;;;;;;10.35;7.38;;;;;;;;;;5105249;28;20177;-68
2022/06/08 06:53:33;;;;;;;14.98;7.65;;;;;;;;;;5123608;27;20179;-68
2022/06/08 06:55:59;;;;;;;12.00;7.80;;;;;;;;;;5105978;27;20233;-69
2022/06/08 06:58:48;;;;;;;15.57;8.18;;;;;;;;;;5096049;27;20216;-71
2022/06/08 07:01:16;;;;;;;13.02;7.72;;;;;;;;;;5108076;27;20644;-70
2022/06/08 07:03:43;;;;;;;12.02;7.65;;;;;;;;;;5108274;28;20708;-69
2022/06/08 07:06:09;;;;;;;14.10;7.93;;;;;;;;;;5106546;27;20181;-71
2022/06/08 07:08:35;;;;;;;12.38;7.70;;;;;;;;;;5093758;27;20194;-69
2022/06/08 07:13:51;;;;;;;14.95;9.05;;;;;;;;;;5093437;28;20216;-69
2022/06/08 07:16:17;;;;;;;17.55;7.85;;;;;;;;;;5094410;28;20185;-70
2022/06/08 07:18:43;;;;;;;12.02;7.70;;;;;;;;;;5093059;28;20213;-70
2022/06/08 07:21:11;;;;;;;15.68;7.78;;;;;;;;;;5081796;27;20185;-70
2022/06/08 07:23:37;;;;;;;10.85;7.55;;;;;;;;;;5132758;27;20259;-71
2022/06/08 07:26:03;;;;;;;11.82;7.63;;;;;;;;;;5114544;27;20272;-70
2022/06/08 07:28:30;;;;;;;12.80;7.25;;;;;;;;;;5094294;27;20200;-70
2022/06/08 07:30:57;;;;;;;12.75;7.72;;;;;;;;;;5107043;28;20189;-70
2022/06/08 07:33:23;;;;;;;11.88;7.45;;;;;;;;;;5112048;28;20618;-71
2022/06/08 07:35:49;;;;;;;11.38;7.30;;;;;;;;;;5090356;28;20214;-69
2022/06/08 07:38:15;;;;;;;11.38;6.47;;;;;;;;;;5110505;28;20253;-70
2022/06/08 07:40:41;;;;;;;20.23;6.70;;;;;;;;;;5094197;28;20345;-69
2022/06/08 07:43:08;;;;;;;13.55;6.55;;;;;;;;;;5093934;27;20183;-69
2022/06/08 07:45:34;;;;;;;9.18;5.95;;;;;;;;;;5114782;27;20208;-69
2022/06/08 07:50:45;;;;;;;11.23;6.03;;;;;;;;;;5112489;28;20216;-68
2022/06/08 07:53:11;;;;;;;9.50;6.03;;;;;;;;;;5094171;27;22241;-68
2022/06/08 07:55:37;;;;;;;13.93;5.60;;;;;;;;;;5132857;27;20574;-69
2022/06/08 07:58:04;;;;;;;9.05;5.43;;;;;;;;;;5096918;28;20724;-69
2022/06/08 08:00:30;;;;;;;8.32;5.88;;;;;;;;;;5093662;28;20206;-70
2022/06/08 08:02:56;;;;;;;9.95;6.00;;;;;;;;;;5119968;27;20746;-70
2022/06/08 08:05:22;;;;;;;9.30;6.00;;;;;;;;;;5131011;27;20223;-70
2022/06/08 08:07:50;;;;;;;12.60;6.28;;;;;;;;;;5110520;28;20188;-72
2022/06/08 08:10:21;;;;;;;11.05;6.30;;;;;;;;;;5111686;27;20211;-70
2022/06/08 08:12:48;;;;;;;10.23;6.43;;;;;;;;;;5093397;28;20197;-70
2022/06/08 08:15:15;;;;;;;10.57;6.13;;;;;;;;;;5093361;28;20192;-71
2022/06/08 08:17:42;;;;;;;11.25;6.38;;;;;;;;;;5108742;28;20201;-70
2022/06/08 08:20:09;;;;;;;12.93;6.70;;;;;;;;;;5111530;28;20189;-68
2022/06/08 08:22:35;;;;;;;9.93;5.93;;;;;;;;;;5110433;28;20196;-70
2022/06/08 08:25:01;;;;;;;12.07;6.50;;;;;;;;;;5095919;27;21027;-68
2022/06/08 08:27:27;;;;;;;12.80;6.18;;;;;;;;;;5091262;28;20181;-68
2022/06/08 08:29:53;;;;;;;13.52;7.38;;;;;;;;;;5108067;28;20255;-69
2022/06/08 08:32:19;;;;;;;11.43;7.35;;;;;;;;;;5126192;27;20280;-69
2022/06/08 08:34:45;;;;;;;10.90;7.30;;;;;;;;;;5106265;28;20180;-72
2022/06/08 08:37:11;;;;;;;12.35;7.40;;;;;;;;;;5111047;28;20259;-70
2022/06/08 08:39:38;;;;;;;12.27;6.78;;;;;;;;;;5111304;28;20251;-69
2022/06/08 08:42:22;;;;;;;15.13;7.85;;;;;;;;;;5110007;28;20182;-68
2022/06/08 08:44:48;;;;;;;10.27;7.45;;;;;;;;;;5111161;28;20178;-67
2022/06/08 08:47:24;;;;;;;13.85;7.88;;;;;;;;;;5075594;28;20220;-70
2022/06/08 08:50:10;;;;;;;13.07;8.07;;;;;;;;;;5110920;28;20181;-69
2022/06/08 08:52:40;;;;;;;12.52;8.43;;;;;;;;;;5108929;28;20189;-70
2022/06/08 08:55:17;;;;;;;12.80;8.15;;;;;;;;;;5078454;28;20238;-67
2022/06/08 08:58:04;;;;;;;16.92;9.25;;;;;;;;;;5119964;27;20226;-72
2022/06/08 09:00:37;;;;;;;14.38;9.18;;;;;;;;;;5121385;27;20223;-72
2022/06/08 09:03:22;;;;;;;16.60;9.80;;;;;;;;;;5095416;28;20675;-67
2022/06/08 09:05:51;;;;;;;31.67;14.52;;;;;;;;;;5103151;27;20176;-70
2022/06/08 09:08:19;;;;;;;19.52;11.88;;;;;;;;;;5112248;27;20200;-68
2022/06/08 09:10:45;;;;;;;21.42;12.80;;;;;;;;;;5111828;27;20176;-66
2022/06/08 09:13:32;;;;;;;39.92;17.92;;;;;;;;;;5113941;27;20690;-69
2022/06/08 09:15:59;;;;;;;20.48;12.85;;;;;;;;;;5110204;28;20192;-69
2022/06/08 09:18:35;;;;;;;17.83;13.00;;;;;;;;;;5110339;28;20334;-70
2022/06/08 09:21:21;;;;;;;21.40;13.30;;;;;;;;;;5103352;28;20196;-68
2022/06/08 09:23:50;;;;;;;23.60;14.77;;;;;;;;;;5109593;28;20185;-69
2022/06/08 09:26:27;;;;;;;19.50;13.23;;;;;;;;;;5075190;28;20306;-69
2022/06/08 09:28:57;;;;;;;17.48;12.57;;;;;;;;;;5109910;28;20177;-68
2022/06/08 09:31:29;;;;;;;16.95;12.73;;;;;;;;;;5122013;27;20184;-67
2022/06/08 09:34:06;;;;;;;15.35;11.38;;;;;;;;;;5090806;28;20832;-69
2022/06/08 09:36:32;;;;;;;19.50;11.73;;;;;;;;;;5109541;28;20192;-69
2022/06/08 09:38:59;;;;;;;14.98;11.23;;;;;;;;;;5110017;28;20293;-68
2022/06/08 09:41:27;;;;;;;19.50;13.20;;;;;;;;;;5110122;28;20184;-68
2022/06/08 09:43:53;;;;;;;18.45;13.20;;;;;;;;;;5108597;28;20180;-68
2022/06/08 09:51:25;;;;;;;16.65;13.27;;;;;;;;;;5128823;27;20602;-68
2022/06/08 09:52:20;;;;;;;16.42;12.02;;;;;;;;;;5109844;28;20184;-72
2022/06/08 09:55:10;;;;;;;23.55;14.20;;;;;;;;;;5112785;28;20245;-72
2022/06/08 09:57:41;;;;;;;19.60;13.63;;;;;;;;;;5130268;28;20222;-73
2022/06/08 10:00:28;;;;;;;19.88;14.30;;;;;;;;;;5112242;28;20599;-71
2022/06/08 10:03:01;;;;;;;17.40;14.50;;;;;;;;;;5130334;28;20541;-69
2022/06/08 10:05:39;;;;;;;23.83;14.45;;;;;;;;;;5108042;28;20189;-70
2022/06/08 10:08:15;;;;;;;27.10;14.30;;;;;;;;;;5110064;28;20181;-68
2022/06/08 10:10:47;;;;;;;22.95;14.13;;;;;;;;;;5091474;28;20205;-69
2022/06/08 10:13:18;;;;;;;25.42;15.45;;;;;;;;;;5110103;28;20196;-69
2022/06/08 10:15:48;;;;;;;15.98;11.65;;;;;;;;;;5106490;28;20210;-69
2022/06/08 10:18:20;;;;;;;14.38;9.48;;;;;;;;;;5109720;28;20233;-68
2022/06/08 10:20:52;;;;;;;13.82;8.40;;;;;;;;;;5109714;28;20569;-69
2022/06/08 10:23:40;;;;;;;9.82;6.70;;;;;;;;;;5088772;28;20212;-68
2022/06/08 10:26:25;;;;;;;10.13;6.28;;;;;;;;;;5091686;28;20177;-69
2022/06/08 10:29:11;;;;;;;8.43;6.10;;;;;;;;;;5109365;28;20193;-69
2022/06/08 10:31:39;;;;;;;7.78;4.85;;;;;;;;;;5109847;28;20184;-68
2022/06/08 10:34:16;;;;;;;11.35;5.85;;;;;;;;;;5077634;28;20602;-68
2022/06/08 10:36:53;;;;;;;17.00;9.32;;;;;;;;;;5111818;28;20522;-69
2022/06/08 10:39:20;;;;;;;9.52;6.50;;;;;;;;;;5111589;28;20204;-68
2022/06/08 10:44:53;;;;;;;13.02;7.28;;;;;;;;;;5067940;28;20190;-69
2022/06/08 10:47:25;;;;;;;19.00;7.93;;;;;;;;;;5068814;28;20186;-70
2022/06/08 10:50:11;;;;;;;14.30;8.48;;;;;;;;;;5075109;28;20197;-69
2022/06/08 10:52:38;;;;;;;15.05;8.98;;;;;;;;;;5113247;28;20284;-69
2022/06/08 10:55:20;;;;;;;16.85;10.70;;;;;;;;;;5087394;28;20181;-69
2022/06/08 10:57:49;;;;;;;13.27;9.57;;;;;;;;;;5092175;28;20217;-68
2022/06/08 11:00:21;;;;;;;16.27;9.57;;;;;;;;;;5092971;28;20190;-69
2022/06/08 11:02:53;;;;;;;17.88;7.43;;;;;;;;;;5087763;28;20193;-69
2022/06/08 11:05:39;;;;;;;13.57;6.25;;;;;;;;;;5112963;28;20264;-69
2022/06/08 11:08:08;;;;;;;11.65;5.70;;;;;;;;;;5111638;27;20181;-68
2022/06/08 11:10:44;;;;;;;13.93;6.43;;;;;;;;;;5113085;28;20184;-70
2022/06/08 11:13:25;;;;;;;15.38;6.28;;;;;;;;;;5094467;28;20187;-69
2022/06/08 11:15:54;;;;;;;11.32;5.90;;;;;;;;;;5113044;28;20185;-69
2022/06/08 11:18:25;;;;;;;12.07;4.93;;;;;;;;;;5111268;28;20238;-69
2022/06/08 11:21:10;;;;;;;13.82;4.60;;;;;;;;;;5094700;28;20177;-70
2022/06/08 11:23:43;;;;;;;13.43;4.55;;;;;;;;;;5112689;28;20264;-70
2022/06/08 11:26:36;;;;;;;8.60;4.30;;;;;;;;;;5094495;28;20307;-70
2022/06/08 11:29:08;;;;;;;12.52;4.60;;;;;;;;;;5072317;28;21061;-69
2022/06/08 11:31:34;;;;;;;9.68;4.22;;;;;;;;;;5112572;28;20705;-70
2022/06/08 11:34:14;;;;;;;10.38;4.18;;;;;;;;;;5094090;28;20180;-70
2022/06/08 11:36:54;;;;;;;10.10;4.40;;;;;;;;;;5111752;28;20182;-70
2022/06/08 11:39:20;;;;;;;12.18;4.63;;;;;;;;;;5078048;27;20209;-71
2022/06/08 11:41:56;;;;;;;10.65;4.35;;;;;;;;;;5112412;28;20202;-70
2022/06/08 11:44:22;;;;;;;7.97;4.05;;;;;;;;;;5126129;27;20179;-71
2022/06/08 11:46:53;;;;;;;10.98;4.43;;;;;;;;;;5114428;27;20268;-72
2022/06/08 11:49:39;;;;;;;8.60;4.80;;;;;;;;;;5109276;27;20586;-73
2022/06/08 11:52:26;;;;;;;8.73;4.45;;;;;;;;;;5092807;28;20181;-71
2022/06/08 11:55:11;;;;;;;11.35;5.07;;;;;;;;;;5109207;27;20237;-73
2022/06/08 11:57:42;;;;;;;10.90;4.45;;;;;;;;;;5111049;27;20191;-73
2022/06/08 12:00:29;;;;;;;11.68;4.82;;;;;;;;;;5101751;27;20690;-73
2022/06/08 12:03:00;;;;;;;13.15;5.22;;;;;;;;;;5112166;27;20180;-73
2022/06/08 12:05:28;;;;;;;10.00;4.07;;;;;;;;;;5113834;27;20538;-72
2022/06/08 12:08:01;;;;;;;8.45;4.03;;;;;;;;;;5096827;27;20202;-72
2022/06/08 12:10:29;;;;;;;8.57;4.00;;;;;;;;;;5118065;27;20258;-72
2022/06/08 12:12:58;;;;;;;10.57;4.90;;;;;;;;;;5097555;28;20763;-73
2022/06/08 12:15:36;;;;;;;9.27;4.57;;;;;;;;;;5120398;27;20189;-72
2022/06/08 12:18:21;;;;;;;9.95;4.20;;;;;;;;;;5093115;28;20631;-72
2022/06/08 12:20:48;;;;;;;8.75;4.63;;;;;;;;;;5116555;27;20204;-73
2022/06/08 12:23:14;;;;;;;7.43;3.95;;;;;;;;;;5123947;27;20184;-73
2022/06/08 12:25:41;;;;;;;11.02;6.03;;;;;;;;;;5113394;27;20189;-73
2022/06/08 12:28:07;;;;;;;14.48;6.55;;;;;;;;;;5096080;28;20582;-72
2022/06/08 12:30:53;;;;;;;16.58;6.97;;;;;;;;;;5109134;28;20592;-72
2022/06/08 12:33:19;;;;;;;6.93;3.80;;;;;;;;;;5104213;27;20279;-73
2022/06/08 12:36:11;;;;;;;7.03;3.50;;;;;;;;;;5113193;27;20180;-72
2022/06/08 12:38:56;;;;;;;10.27;4.72;;;;;;;;;;5127717;27;20204;-72
2022/06/08 12:41:37;;;;;;;10.65;4.70;;;;;;;;;;5114194;27;20527;-72
2022/06/08 12:44:07;;;;;;;8.73;4.88;;;;;;;;;;5111128;28;20169;-72
2022/06/08 12:46:35;;;;;;;8.13;5.10;;;;;;;;;;5092686;28;20185;-70
2022/06/08 12:49:14;;;;;;;10.95;5.35;;;;;;;;;;5092677;28;20571;-72
2022/06/08 12:51:43;;;;;;;10.10;5.30;;;;;;;;;;5083751;28;20185;-71
2022/06/08 12:54:27;;;;;;;11.25;5.28;;;;;;;;;;5092415;28;20177;-71
2022/06/08 12:56:55;;;;;;;10.15;5.15;;;;;;;;;;5110678;28;20193;-72
2022/06/08 12:59:22;;;;;;;7.13;5.40;;;;;;;;;;5110351;28;20684;-71
2022/06/08 13:01:48;;;;;;;11.70;5.32;;;;;;;;;;5092493;28;20181;-71
2022/06/08 13:04:16;;;;;;;8.10;5.15;;;;;;;;;;5092996;28;20180;-71
2022/06/08 13:06:43;;;;;;;13.55;5.57;;;;;;;;;;5083960;28;20191;-72
2022/06/08 13:09:16;;;;;;;6.75;4.90;;;;;;;;;;5110241;27;20192;-71
2022/06/08 13:11:43;;;;;;;9.38;6.03;;;;;;;;;;5112457;27;20545;-70
2022/06/08 13:14:17;;;;;;;12.10;5.80;;;;;;;;;;5112305;27;20196;-71
2022/06/08 13:16:44;;;;;;;7.55;6.00;;;;;;;;;;5107206;28;20193;-71
2022/06/08 13:19:12;;;;;;;11.30;6.30;;;;;;;;;;5092496;28;20225;-70
2022/06/08 13:21:38;;;;;;;10.40;6.63;;;;;;;;;;5110860;28;20188;-71
2022/06/08 13:24:04;;;;;;;8.80;6.13;;;;;;;;;;5092238;28;20645;-72
2022/06/08 13:26:34;;;;;;;9.55;5.97;;;;;;;;;;5107657;28;20189;-70
2022/06/08 13:29:01;;;;;;;10.68;6.28;;;;;;;;;;5080048;28;20215;-71
2022/06/08 13:31:28;;;;;;;9.60;5.70;;;;;;;;;;5128836;27;20195;-71
2022/06/08 13:34:04;;;;;;;9.77;6.10;;;;;;;;;;5130953;27;20188;-72
2022/06/08 13:36:42;;;;;;;8.80;6.38;;;;;;;;;;5125119;27;20610;-71
2022/06/08 13:39:11;;;;;;;12.98;6.55;;;;;;;;;;5130796;27;20212;-71
2022/06/08 13:41:39;;;;;;;10.30;6.15;;;;;;;;;;5130889;27;20225;-70
2022/06/08 13:44:13;;;;;;;8.77;6.82;;;;;;;;;;5109975;28;20196;-70
2022/06/08 13:46:40;;;;;;;8.60;6.95;;;;;;;;;;5109186;28;20221;-71
2022/06/08 13:49:07;;;;;;;9.63;7.07;;;;;;;;;;5074848;28;20197;-71
2022/06/08 13:51:35;;;;;;;7.68;5.63;;;;;;;;;;5090677;28;20178;-72
2022/06/08 13:54:01;;;;;;;9.13;6.05;;;;;;;;;;5109871;28;20264;-71
2022/06/08 13:56:27;;;;;;;10.55;6.47;;;;;;;;;;5107713;28;20189;-71
2022/06/08 13:58:55;;;;;;;12.38;7.03;;;;;;;;;;5108929;28;20612;-71
2022/06/08 14:01:24;;;;;;;8.02;6.45;;;;;;;;;;5084586;28;20172;-70
2022/06/08 14:03:50;;;;;;;10.13;6.38;;;;;;;;;;5109498;28;20189;-71
2022/06/08 14:14:36;;;;;;;7.47;6.10;;;;;;;;;;5108685;28;20220;-70
2022/06/08 14:17:04;;;;;;;6.45;5.53;;;;;;;;;;5093923;28;20268;-70
2022/06/08 14:19:33;;;;;;;8.30;5.70;;;;;;;;;;5110164;28;20413;-70
2022/06/08 14:22:00;;;;;;;9.07;5.80;;;;;;;;;;5095363;28;20877;-70
2022/06/08 14:24:28;;;;;;;7.70;5.88;;;;;;;;;;5095321;28;20184;-70
2022/06/08 14:26:55;;;;;;;12.52;7.07;;;;;;;;;;5093127;28;20181;-69
2022/06/08 14:29:21;;;;;;;14.23;6.43;;;;;;;;;;5095379;28;20212;-69
2022/06/08 14:31:48;;;;;;;10.82;7.15;;;;;;;;;;5095773;28;20196;-70
2022/06/08 14:34:18;;;;;;;14.63;7.10;;;;;;;;;;5113721;28;20637;-70
2022/06/08 14:36:44;;;;;;;11.70;6.47;;;;;;;;;;5112569;28;20184;-70
2022/06/08 14:39:11;;;;;;;14.60;7.00;;;;;;;;;;5113504;28;20201;-69
2022/06/08 14:41:37;;;;;;;17.52;7.90;;;;;;;;;;5113684;27;20227;-70
2022/06/08 14:44:08;;;;;;;18.80;7.45;;;;;;;;;;5089418;27;20180;-70
2022/06/08 14:46:35;;;;;;;15.95;7.03;;;;;;;;;;5112624;27;20226;-71
2022/06/08 14:49:01;;;;;;;21.02;8.48;;;;;;;;;;5113394;28;20196;-71
2022/06/08 14:51:27;;;;;;;24.63;9.63;;;;;;;;;;5111733;27;20184;-69
2022/06/08 14:53:54;;;;;;;30.25;10.68;;;;;;;;;;5099658;28;20274;-70
2022/06/08 14:56:24;;;;;;;33.30;10.73;;;;;;;;;;5110339;28;20196;-69
2022/06/08 14:58:53;;;;;;;31.10;11.02;;;;;;;;;;5117577;27;20826;-70
2022/06/08 15:01:29;;;;;;;34.22;11.27;;;;;;;;;;5120888;27;20211;-69
2022/06/08 15:03:56;;;;;;;35.90;10.77;;;;;;;;;;5112129;27;20624;-70
2022/06/08 15:06:23;;;;;;;31.45;9.20;;;;;;;;;;5090373;28;20186;-70
2022/06/08 15:08:49;;;;;;;33.15;11.15;;;;;;;;;;5112916;28;20222;-70
2022/06/08 15:14:12;;;;;;;42.42;11.07;;;;;;;;;;5133635;27;20181;-70
2022/06/08 15:16:39;;;;;;;35.72;10.88;;;;;;;;;;5097958;27;20185;-70
2022/06/08 15:19:05;;;;;;;39.92;10.60;;;;;;;;;;5115311;27;20247;-70